createdAt,value
2022-11-01T00:00:03.256Z,3.36
2022-11-01T00:01:34.842Z,3.32
2022-11-01T00:03:06.333Z,3.40
2022-11-01T00:04:37.838Z,3.39
2022-11-01T00:06:09.214Z,3.45
2022-11-01T00:07:40.862Z,3.49
2022-11-01T00:09:12.303Z,3.36
2022-11-01T00:10:43.705Z,3.38
2022-11-01T00:12:15.132Z,3.44
2022-11-01T00:13:46.796Z,3.22
2022-11-01T00:15:18.159Z,3.51
2022-11-01T00:16:49.606Z,3.56
2022-11-01T00:18:21.007Z,3.48
2022-11-01T00:19:52.683Z,3.77
2022-11-01T00:21:24.075Z,3.38
2022-11-01T00:22:55.534Z,3.86
2022-11-01T00:24:26.940Z,3.51
2022-11-01T00:26:03.749Z,3.23
2022-11-01T00:27:36.344Z,3.20
2022-11-01T00:29:07.751Z,3.18
2022-11-01T00:30:39.205Z,3.77
2022-11-01T00:32:10.533Z,3.44
2022-11-01T00:33:42.085Z,3.22
2022-11-01T00:35:13.408Z,3.50
2022-11-01T00:36:44.790Z,3.40
2022-11-01T00:38:16.329Z,3.32
2022-11-01T00:39:47.857Z,3.76
2022-11-01T00:41:19.288Z,3.51
2022-11-01T00:42:51.140Z,3.30
2022-11-01T00:44:22.651Z,3.03
2022-11-01T00:45:54.012Z,3.44
2022-11-01T00:47:25.631Z,3.28
2022-11-01T00:48:57.260Z,3.15
2022-11-01T00:50:28.802Z,3.44
2022-11-01T00:52:00.447Z,3.35
2022-11-01T00:53:31.851Z,3.49
2022-11-01T00:55:03.196Z,3.04
2022-11-01T00:56:34.533Z,3.54
2022-11-01T00:58:05.847Z,3.59
2022-11-01T00:59:40.877Z,3.55
2022-11-01T01:01:12.928Z,3.23
2022-11-01T01:02:44.478Z,3.80
2022-11-01T01:04:16.051Z,3.42
2022-11-01T01:05:47.599Z,3.06
2022-11-01T01:07:18.948Z,3.21
2022-11-01T01:08:50.432Z,3.67
2022-11-01T01:10:21.801Z,3.59
2022-11-01T01:11:53.180Z,3.50
2022-11-01T01:13:24.995Z,3.62
2022-11-01T01:14:56.517Z,3.56
2022-11-01T01:16:27.906Z,3.73
2022-11-01T01:17:59.767Z,3.41
2022-11-01T01:19:31.459Z,3.57
2022-11-01T01:21:02.876Z,4.16
2022-11-01T01:22:34.301Z,3.68
2022-11-01T01:24:05.694Z,4.18
2022-11-01T01:25:37.166Z,4.01
2022-11-01T01:27:08.884Z,3.90
2022-11-01T01:28:43.751Z,3.97
2022-11-01T01:30:16.223Z,3.83
2022-11-01T01:31:47.552Z,3.99
2022-11-01T01:33:18.976Z,3.89
2022-11-01T01:34:50.637Z,4.40
2022-11-01T01:36:22.049Z,3.85
2022-11-01T01:37:53.525Z,3.91
2022-11-01T01:39:24.886Z,4.11
2022-11-01T01:40:56.190Z,4.44
2022-11-01T01:42:27.544Z,4.75
2022-11-01T01:43:59.100Z,4.91
2022-11-01T01:45:30.496Z,4.43
2022-11-01T01:47:01.914Z,4.57
2022-11-01T01:48:33.251Z,4.50
2022-11-01T01:50:04.666Z,4.21
2022-11-01T01:51:36.680Z,3.93
2022-11-01T01:53:08.062Z,3.76
2022-11-01T01:54:39.415Z,4.30
2022-11-01T01:56:10.812Z,4.30
2022-11-01T01:57:42.313Z,3.65
2022-11-01T01:59:13.599Z,3.97
2022-11-01T02:00:46.138Z,3.77
2022-11-01T02:02:17.603Z,3.81
2022-11-01T02:03:49.044Z,3.95
2022-11-01T02:05:20.355Z,3.78
2022-11-01T02:06:51.659Z,3.89
2022-11-01T02:08:22.988Z,4.10
2022-11-01T02:09:54.397Z,3.71
2022-11-01T02:11:25.915Z,3.85
2022-11-01T02:12:57.424Z,4.07
2022-11-01T02:14:28.875Z,3.79
2022-11-01T02:16:00.406Z,3.89
2022-11-01T02:17:31.814Z,3.77
2022-11-01T02:19:03.204Z,4.24
2022-11-01T02:20:34.516Z,3.91
2022-11-01T02:22:05.831Z,3.93
2022-11-01T02:23:37.227Z,4.12
2022-11-01T02:25:08.535Z,3.70
2022-11-01T02:26:40.418Z,3.82
2022-11-01T02:28:11.940Z,3.81
2022-11-01T02:29:43.377Z,4.06
2022-11-01T02:31:14.792Z,3.66
2022-11-01T02:32:46.183Z,3.66
2022-11-01T02:34:17.532Z,3.94
2022-11-01T02:35:49.016Z,4.27
2022-11-01T02:37:20.427Z,3.78
2022-11-01T02:38:51.836Z,4.05
2022-11-01T02:40:23.245Z,3.81
2022-11-01T02:41:54.759Z,3.68
2022-11-01T02:43:26.061Z,3.98
2022-11-01T02:44:57.410Z,3.28
2022-11-01T02:46:28.803Z,3.41
2022-11-01T02:48:00.225Z,3.30
2022-11-01T02:49:31.641Z,3.72
2022-11-01T02:51:03.335Z,3.37
2022-11-01T02:52:34.657Z,3.54
2022-11-01T02:54:06.262Z,3.28
2022-11-01T02:55:37.664Z,3.36
2022-11-01T02:57:11.071Z,3.58
2022-11-01T02:58:42.923Z,3.28
2022-11-01T03:00:14.460Z,3.33
2022-11-01T03:01:46.077Z,3.24
2022-11-01T03:03:17.578Z,2.90
2022-11-01T03:04:49.174Z,3.15
2022-11-01T03:06:20.529Z,2.94
2022-11-01T03:07:51.920Z,3.07
2022-11-01T03:09:23.336Z,2.92
2022-11-01T03:10:54.770Z,3.07
2022-11-01T03:12:26.362Z,3.18
2022-11-01T03:13:57.976Z,2.88
2022-11-01T03:15:29.363Z,3.29
2022-11-01T03:17:00.709Z,3.33
2022-11-01T03:18:32.116Z,3.14
2022-11-01T03:20:03.444Z,3.16
2022-11-01T03:21:34.798Z,3.25
2022-11-01T03:23:06.217Z,3.10
2022-11-01T03:24:37.844Z,3.12
2022-11-01T03:26:09.428Z,3.18
2022-11-01T03:27:40.811Z,3.25
2022-11-01T03:29:12.154Z,3.61
2022-11-01T03:30:43.489Z,3.58
2022-11-01T03:32:14.804Z,3.41
2022-11-01T03:33:46.363Z,3.14
2022-11-01T03:35:17.712Z,3.62
2022-11-01T03:36:49.051Z,3.38
2022-11-01T03:38:20.575Z,3.48
2022-11-01T03:39:57.212Z,3.56
2022-11-01T03:41:28.816Z,3.30
2022-11-01T03:43:00.721Z,3.19
2022-11-01T03:44:32.257Z,3.46
2022-11-01T03:46:03.829Z,3.31
2022-11-01T03:47:35.169Z,2.95
2022-11-01T03:49:06.744Z,3.08
2022-11-01T03:50:38.109Z,3.35
2022-11-01T03:52:09.409Z,3.15
2022-11-01T03:53:40.839Z,3.32
2022-11-01T03:55:12.471Z,3.30
2022-11-01T03:56:44.089Z,3.06
2022-11-01T03:58:15.628Z,3.45
2022-11-01T03:59:47.013Z,3.31
2022-11-01T04:01:18.668Z,3.13
2022-11-01T04:02:50.083Z,3.31
2022-11-01T04:04:21.481Z,3.14
2022-11-01T04:05:53.188Z,3.09
2022-11-01T04:07:24.562Z,3.50
2022-11-01T04:08:56.043Z,3.29
2022-11-01T04:10:27.435Z,3.15
2022-11-01T04:11:58.829Z,3.17
2022-11-01T04:13:31.285Z,3.14
2022-11-01T04:15:02.652Z,3.32
2022-11-01T04:16:34.047Z,3.46
2022-11-01T04:18:05.759Z,3.46
2022-11-01T04:19:37.479Z,3.40
2022-11-01T04:21:08.826Z,3.45
2022-11-01T04:22:40.163Z,3.23
2022-11-01T04:24:11.444Z,3.23
2022-11-01T04:25:43.101Z,3.08
2022-11-01T04:27:14.410Z,3.02
2022-11-01T04:28:45.723Z,3.04
2022-11-01T04:30:17.115Z,2.99
2022-11-01T04:31:48.532Z,2.95
2022-11-01T04:33:19.950Z,3.26
2022-11-01T04:34:51.489Z,3.31
2022-11-01T04:36:22.949Z,3.26
2022-11-01T04:37:54.382Z,3.16
2022-11-01T04:39:25.782Z,3.11
2022-11-01T04:40:57.093Z,3.01
2022-11-01T04:42:28.508Z,2.99
2022-11-01T04:43:59.925Z,3.51
2022-11-01T04:45:31.462Z,3.18
2022-11-01T04:47:02.813Z,3.29
2022-11-01T04:48:34.315Z,3.02
2022-11-01T04:50:05.660Z,2.94
2022-11-01T04:51:36.982Z,3.25
2022-11-01T04:53:08.277Z,3.15
2022-11-01T04:54:39.620Z,3.04
2022-11-01T04:56:11.515Z,3.51
2022-11-01T04:57:43.410Z,3.35
2022-11-01T04:59:14.807Z,3.38
2022-11-01T05:00:46.296Z,3.19
2022-11-01T05:02:18.048Z,3.14
2022-11-01T05:03:49.601Z,3.26
2022-11-01T05:05:20.993Z,2.90
2022-11-01T05:06:52.576Z,3.33
2022-11-01T05:08:23.896Z,3.09
2022-11-01T05:09:55.328Z,3.02
2022-11-01T05:11:26.847Z,3.38
2022-11-01T05:12:58.335Z,3.39
2022-11-01T05:14:29.978Z,2.98
2022-11-01T05:16:19.312Z,3.07
2022-11-01T05:17:51.359Z,3.19
2022-11-01T05:19:22.687Z,3.17
2022-11-01T05:20:54.124Z,2.90
2022-11-01T05:22:25.834Z,2.79
2022-11-01T05:24:03.315Z,3.20
2022-11-01T05:25:37.947Z,3.22
2022-11-01T05:27:09.748Z,3.02
2022-11-01T05:28:41.195Z,2.93
2022-11-01T05:30:12.606Z,2.96
2022-11-01T05:31:43.919Z,3.00
2022-11-01T05:33:15.375Z,3.34
2022-11-01T05:34:46.768Z,2.92
2022-11-01T05:36:18.150Z,2.99
2022-11-01T05:37:49.472Z,3.03
2022-11-01T05:39:20.961Z,3.10
2022-11-01T05:40:52.311Z,3.26
2022-11-01T05:42:23.779Z,2.89
2022-11-01T05:43:56.492Z,3.22
2022-11-01T05:45:28.033Z,3.03
2022-11-01T05:46:59.813Z,3.44
2022-11-01T05:48:31.230Z,3.16
2022-11-01T05:50:02.717Z,3.64
2022-11-01T05:51:34.052Z,3.81
2022-11-01T05:53:05.405Z,3.52
2022-11-01T05:54:36.777Z,3.27
2022-11-01T05:56:08.143Z,3.52
2022-11-01T05:57:39.831Z,3.08
2022-11-01T05:59:11.202Z,3.27
2022-11-01T06:00:42.843Z,2.98
2022-11-01T06:02:14.252Z,3.07
2022-11-01T06:03:45.783Z,3.10
2022-11-01T06:05:17.160Z,3.15
2022-11-01T06:06:48.621Z,3.10
2022-11-01T06:08:20.041Z,2.88
2022-11-01T06:09:51.736Z,2.90
2022-11-01T06:11:23.881Z,3.07
2022-11-01T06:12:55.824Z,3.17
2022-11-01T06:14:27.623Z,3.22
2022-11-01T06:15:59.443Z,3.08
2022-11-01T06:17:30.849Z,3.26
2022-11-01T06:19:32.528Z,3.05
2022-11-01T06:21:04.691Z,3.38
2022-11-01T06:22:41.125Z,3.14
2022-11-01T06:24:12.498Z,2.91
2022-11-01T06:25:45.152Z,3.07
2022-11-01T06:27:16.665Z,2.88
2022-11-01T06:28:48.075Z,3.04
2022-11-01T06:30:19.394Z,3.00
2022-11-01T06:31:52.015Z,3.18
2022-11-01T06:33:23.422Z,3.00
2022-11-01T06:34:54.766Z,3.26
2022-11-01T06:36:26.926Z,2.72
2022-11-01T06:37:58.363Z,2.77
2022-11-01T06:39:29.904Z,2.99
2022-11-01T06:41:01.305Z,3.26
2022-11-01T06:42:32.930Z,3.03
2022-11-01T06:44:04.529Z,3.13
2022-11-01T06:45:35.894Z,2.72
2022-11-01T06:47:12.480Z,2.88
2022-11-01T06:48:43.944Z,3.15
2022-11-01T06:50:15.368Z,2.50
2022-11-01T06:51:46.870Z,2.51
2022-11-01T06:53:23.295Z,2.63
2022-11-01T06:54:55.186Z,2.80
2022-11-01T06:56:26.625Z,2.54
2022-11-01T06:57:58.231Z,2.56
2022-11-01T06:59:29.559Z,2.50
2022-11-01T07:01:01.099Z,2.39
2022-11-01T07:02:32.620Z,2.39
2022-11-01T07:04:04.213Z,2.32
2022-11-01T07:05:37.288Z,1.61
2022-11-01T07:07:09.229Z,1.43
2022-11-01T07:08:40.574Z,1.68
2022-11-01T07:10:12.056Z,1.45
2022-11-01T07:11:43.632Z,1.29
2022-11-01T07:13:14.992Z,1.23
2022-11-01T07:14:51.603Z,1.36
2022-11-01T07:16:23.077Z,1.13
2022-11-01T07:18:10.980Z,1.25
2022-11-01T07:19:47.551Z,0.99
2022-11-01T07:21:19.021Z,0.88
2022-11-01T07:22:50.515Z,0.98
2022-11-01T07:24:22.040Z,1.18
2022-11-01T07:25:53.453Z,1.52
2022-11-01T07:27:25.152Z,1.16
2022-11-01T07:28:56.658Z,1.18
2022-11-01T07:30:28.158Z,1.22
2022-11-01T07:31:59.607Z,1.19
2022-11-01T07:33:31.049Z,1.25
2022-11-01T07:35:02.626Z,1.14
2022-11-01T07:36:40.651Z,1.12
2022-11-01T07:38:13.358Z,1.09
2022-11-01T07:39:45.150Z,0.91
2022-11-01T07:41:16.438Z,1.26
2022-11-01T07:42:48.013Z,0.98
2022-11-01T07:44:19.545Z,1.18
2022-11-01T07:45:51.012Z,1.03
2022-11-01T07:47:22.454Z,1.30
2022-11-01T07:48:54.010Z,0.81
2022-11-01T07:50:25.492Z,0.97
2022-11-01T07:52:00.319Z,0.90
2022-11-01T07:53:35.142Z,0.77
2022-11-01T07:55:06.813Z,0.99
2022-11-01T07:56:38.233Z,1.20
2022-11-01T07:58:09.666Z,1.07
2022-11-01T07:59:41.078Z,1.24
2022-11-01T08:01:12.944Z,0.93
2022-11-01T08:02:44.478Z,0.94
2022-11-01T08:04:16.535Z,0.98
2022-11-01T08:05:53.074Z,1.13
2022-11-01T08:07:24.891Z,0.94
2022-11-01T08:08:56.242Z,0.94
2022-11-01T08:10:28.175Z,0.67
2022-11-01T08:12:00.217Z,0.78
2022-11-01T08:13:31.686Z,0.85
2022-11-01T08:15:08.574Z,0.79
2022-11-01T08:16:40.307Z,0.92
2022-11-01T08:18:11.684Z,1.00
2022-11-01T08:19:43.466Z,0.82
2022-11-01T08:21:19.872Z,0.90
2022-11-01T08:22:53.040Z,0.88
2022-11-01T08:24:24.521Z,1.08
2022-11-01T08:25:55.978Z,0.81
2022-11-01T08:27:31.498Z,0.88
2022-11-01T08:29:05.920Z,0.93
2022-11-01T08:30:37.448Z,0.88
2022-11-01T08:32:08.879Z,0.84
2022-11-01T08:33:41.791Z,0.97
2022-11-01T08:35:13.056Z,1.03
2022-11-01T08:36:44.874Z,0.91
2022-11-01T08:38:16.163Z,1.00
2022-11-01T08:39:48.046Z,0.92
2022-11-01T08:41:20.907Z,0.93
2022-11-01T08:42:57.372Z,0.91
2022-11-01T08:44:29.150Z,0.91
2022-11-01T08:46:05.490Z,0.85
2022-11-01T08:47:41.927Z,0.79
2022-11-01T08:49:18.231Z,0.99
2022-11-01T08:50:50.520Z,1.00
2022-11-01T08:52:21.995Z,1.38
2022-11-01T08:53:53.595Z,1.13
2022-11-01T08:55:26.547Z,0.85
2022-11-01T08:56:59.180Z,0.80
2022-11-01T08:58:31.065Z,1.19
2022-11-01T09:00:02.585Z,1.11
2022-11-01T09:01:34.237Z,0.82
2022-11-01T09:03:06.665Z,0.74
2022-11-01T09:04:38.633Z,1.05
2022-11-01T09:06:10.702Z,1.06
2022-11-01T09:07:42.331Z,1.12
2022-11-01T09:09:13.895Z,1.09
2022-11-01T09:11:06.650Z,1.33
2022-11-01T09:12:38.054Z,1.28
2022-11-01T09:14:09.628Z,1.87
2022-11-01T09:15:42.223Z,1.54
2022-11-01T09:17:13.941Z,1.48
2022-11-01T09:18:45.431Z,1.80
2022-11-01T09:20:16.796Z,1.83
2022-11-01T09:21:48.114Z,1.80
2022-11-01T09:23:19.998Z,1.13
2022-11-01T09:24:51.349Z,1.32
2022-11-01T09:26:22.872Z,1.74
2022-11-01T09:27:54.318Z,1.88
2022-11-01T09:29:25.633Z,2.70
2022-11-01T09:31:01.639Z,1.52
2022-11-01T09:32:47.212Z,1.59
2022-11-01T09:34:18.821Z,1.64
2022-11-01T09:35:52.189Z,2.08
2022-11-01T09:37:26.695Z,2.08
2022-11-01T09:38:58.079Z,1.94
2022-11-01T09:40:29.800Z,2.28
2022-11-01T09:42:01.140Z,2.52
2022-11-01T09:43:32.724Z,2.18
2022-11-01T09:45:04.662Z,2.13
2022-11-01T09:46:36.012Z,2.02
2022-11-01T09:48:07.691Z,1.97
2022-11-01T09:49:39.354Z,1.88
2022-11-01T09:51:10.884Z,2.25
2022-11-01T09:52:42.296Z,2.24
2022-11-01T09:54:15.279Z,2.01
2022-11-01T09:55:46.800Z,2.43
2022-11-01T09:57:18.267Z,2.19
2022-11-01T09:58:49.634Z,1.97
2022-11-01T10:00:21.063Z,2.00
2022-11-01T10:01:53.821Z,2.16
2022-11-01T10:03:25.873Z,2.51
2022-11-01T10:04:57.381Z,2.04
2022-11-01T10:06:28.677Z,1.87
2022-11-01T10:08:14.247Z,1.92
2022-11-01T10:10:02.063Z,1.95
2022-11-01T10:11:33.488Z,1.97
2022-11-01T10:13:05.170Z,1.66
2022-11-01T10:14:42.112Z,1.82
2022-11-01T10:16:14.791Z,2.03
2022-11-01T10:17:51.706Z,1.98
2022-11-01T10:19:23.659Z,1.70
2022-11-01T10:20:55.255Z,1.72
2022-11-01T10:22:31.852Z,1.76
2022-11-01T10:24:03.643Z,2.32
2022-11-01T10:25:35.477Z,1.51
2022-11-01T10:27:06.921Z,1.95
2022-11-01T10:28:38.656Z,2.01
2022-11-01T10:30:10.227Z,2.23
2022-11-01T10:31:41.558Z,2.61
2022-11-01T10:33:12.979Z,2.29
2022-11-01T10:34:44.504Z,1.95
2022-11-01T10:36:15.988Z,2.24
2022-11-01T10:37:58.159Z,2.29
2022-11-01T10:39:55.643Z,1.93
2022-11-01T10:41:29.448Z,2.27
2022-11-01T10:43:00.855Z,2.39
2022-11-01T10:44:32.174Z,2.13
2022-11-01T10:46:04.506Z,1.74
2022-11-01T10:47:35.876Z,1.83
2022-11-01T10:49:07.606Z,2.06
2022-11-01T10:50:39.700Z,2.01
2022-11-01T10:52:11.506Z,1.98
2022-11-01T10:53:42.985Z,1.89
2022-11-01T10:55:14.459Z,2.14
2022-11-01T10:56:45.875Z,1.81
2022-11-01T10:58:17.439Z,2.08
2022-11-01T10:59:49.131Z,2.07
2022-11-01T11:01:20.894Z,2.18
2022-11-01T11:02:52.411Z,2.29
2022-11-01T11:04:27.542Z,1.99
2022-11-01T11:05:59.128Z,1.80
2022-11-01T11:07:30.919Z,1.92
2022-11-01T11:09:03.461Z,1.69
2022-11-01T11:10:34.929Z,1.83
2022-11-01T11:12:06.363Z,2.03
2022-11-01T11:13:38.166Z,2.03
2022-11-01T11:15:11.012Z,1.99
2022-11-01T11:16:47.718Z,2.14
2022-11-01T11:18:19.207Z,1.89
2022-11-01T11:19:51.115Z,2.02
2022-11-01T11:21:27.828Z,1.79
2022-11-01T11:23:00.044Z,2.05
2022-11-01T11:24:37.786Z,1.93
2022-11-01T11:26:09.224Z,2.17
2022-11-01T11:27:40.646Z,1.95
2022-11-01T11:29:12.358Z,2.22
2022-11-01T11:30:44.100Z,2.30
2022-11-01T11:32:20.594Z,1.99
2022-11-01T11:33:51.989Z,1.96
2022-11-01T11:35:24.059Z,2.27
2022-11-01T11:36:55.546Z,2.44
2022-11-01T11:38:28.000Z,2.26
2022-11-01T11:39:59.672Z,2.38
2022-11-01T11:41:31.697Z,1.85
2022-11-01T11:43:03.574Z,2.21
2022-11-01T11:44:35.265Z,2.01
2022-11-01T11:46:06.896Z,1.48
2022-11-01T11:47:39.005Z,1.59
2022-11-01T11:49:10.862Z,2.27
2022-11-01T11:50:43.366Z,2.07
2022-11-01T11:52:19.854Z,1.95
2022-11-01T11:53:51.265Z,1.78
2022-11-01T11:55:22.791Z,2.03
2022-11-01T11:56:59.491Z,1.86
2022-11-01T11:58:36.031Z,1.62
2022-11-01T12:00:07.631Z,1.62
2022-11-01T12:01:39.412Z,1.99
2022-11-01T12:03:11.076Z,1.79
2022-11-01T12:04:43.212Z,2.07
2022-11-01T12:06:15.229Z,2.39
2022-11-01T12:07:46.999Z,2.74
2022-11-01T12:09:22.848Z,2.31
2022-11-01T12:10:54.949Z,2.11
2022-11-01T12:12:31.810Z,2.16
2022-11-01T12:14:03.985Z,1.48
2022-11-01T12:15:38.350Z,1.33
2022-11-01T12:17:12.935Z,2.09
2022-11-01T12:18:44.657Z,2.02
2022-11-01T12:20:16.236Z,1.83
2022-11-01T12:21:52.661Z,1.87
2022-11-01T12:23:24.177Z,1.76
2022-11-01T12:24:55.656Z,1.48
2022-11-01T12:26:27.388Z,1.63
2022-11-01T12:27:58.902Z,1.73
2022-11-01T12:29:30.705Z,2.05
2022-11-01T12:31:03.063Z,2.19
2022-11-01T12:32:34.540Z,1.66
2022-11-01T12:34:06.024Z,2.26
2022-11-01T12:35:37.449Z,1.97
2022-11-01T12:37:09.691Z,2.07
2022-11-01T12:38:41.111Z,1.70
2022-11-01T12:40:12.690Z,1.86
2022-11-01T12:41:44.188Z,2.07
2022-11-01T12:43:16.684Z,1.90
2022-11-01T12:44:48.164Z,1.87
2022-11-01T12:46:19.660Z,2.07
2022-11-01T12:47:51.146Z,2.38
2022-11-01T12:49:22.620Z,1.76
2022-11-01T12:50:54.226Z,2.48
2022-11-01T12:52:25.925Z,2.55
2022-11-01T12:53:58.101Z,4.05
2022-11-01T12:55:29.814Z,4.65
2022-11-01T12:57:01.324Z,2.91
2022-11-01T12:58:36.057Z,2.25
2022-11-01T13:00:08.427Z,1.77
2022-11-01T13:01:40.024Z,1.86
2022-11-01T13:03:12.785Z,1.90
2022-11-01T13:04:44.387Z,1.78
2022-11-01T13:06:15.981Z,1.69
2022-11-01T13:07:47.636Z,1.76
2022-11-01T13:09:34.725Z,1.84
2022-11-01T13:11:11.206Z,2.22
2022-11-01T13:13:10.458Z,2.28
2022-11-01T13:14:42.459Z,2.04
2022-11-01T13:16:13.917Z,1.42
2022-11-01T13:17:45.837Z,1.79
2022-11-01T13:19:17.441Z,1.74
2022-11-01T13:20:48.889Z,1.60
2022-11-01T13:22:20.377Z,1.85
2022-11-01T13:23:51.849Z,1.75
2022-11-01T13:25:48.558Z,1.83
2022-11-01T13:27:19.932Z,1.84
2022-11-01T13:29:19.692Z,2.05
2022-11-01T13:30:51.174Z,2.30
2022-11-01T13:32:22.644Z,2.25
2022-11-01T13:33:54.265Z,1.72
2022-11-01T13:35:26.779Z,2.26
2022-11-01T13:36:58.360Z,2.16
2022-11-01T13:38:29.916Z,1.92
2022-11-01T13:40:01.311Z,2.17
2022-11-01T13:41:32.889Z,1.74
2022-11-01T13:43:09.436Z,1.62
2022-11-01T13:44:40.840Z,1.69
2022-11-01T13:46:12.339Z,1.71
2022-11-01T13:49:20.370Z,1.94
2022-11-01T13:50:53.942Z,1.90
2022-11-01T13:52:26.708Z,2.13
2022-11-01T13:53:58.265Z,1.86
2022-11-01T13:55:29.797Z,1.68
2022-11-01T13:57:01.219Z,1.68
2022-11-01T13:58:32.909Z,1.65
2022-11-01T14:00:04.347Z,1.78
2022-11-01T14:01:36.089Z,2.07
2022-11-01T14:03:07.557Z,2.11
2022-11-01T14:04:38.965Z,1.77
2022-11-01T14:06:10.352Z,1.55
2022-11-01T14:07:41.871Z,1.44
2022-11-01T14:09:13.395Z,1.37
2022-11-01T14:10:44.903Z,1.96
2022-11-01T14:12:16.420Z,1.98
2022-11-01T14:13:47.850Z,2.29
2022-11-01T14:15:19.449Z,2.43
2022-11-01T14:16:50.781Z,2.19
2022-11-01T14:18:22.330Z,1.90
2022-11-01T14:19:58.720Z,1.84
2022-11-01T14:21:30.398Z,2.21
2022-11-01T14:23:01.824Z,2.30
2022-11-01T14:24:35.492Z,2.29
2022-11-01T14:26:07.439Z,2.16
2022-11-01T14:27:39.138Z,2.22
2022-11-01T14:29:10.559Z,1.83
2022-11-01T14:30:42.114Z,1.67
2022-11-01T14:32:13.631Z,1.82
2022-11-01T14:33:45.112Z,1.76
2022-11-01T14:35:16.493Z,1.70
2022-11-01T14:36:48.620Z,1.87
2022-11-01T14:38:20.100Z,1.97
2022-11-01T14:39:51.710Z,2.01
2022-11-01T14:41:23.659Z,2.00
2022-11-01T14:42:55.087Z,2.01
2022-11-01T14:44:26.857Z,2.09
2022-11-01T14:45:58.238Z,1.94
2022-11-01T14:47:29.585Z,2.06
2022-11-01T14:49:00.926Z,1.90
2022-11-01T14:50:32.360Z,2.21
2022-11-01T14:52:03.683Z,2.36
2022-11-01T14:53:35.104Z,2.03
2022-11-01T14:55:06.517Z,2.08
2022-11-01T14:56:40.992Z,2.02
2022-11-01T14:58:12.801Z,1.94
2022-11-01T14:59:49.421Z,1.91
2022-11-01T15:01:21.053Z,1.83
2022-11-01T15:02:52.772Z,2.32
2022-11-01T15:04:24.844Z,1.86
2022-11-01T15:05:56.611Z,1.77
2022-11-01T15:07:30.850Z,1.67
2022-11-01T15:09:03.285Z,2.09
2022-11-01T15:10:35.168Z,2.12
2022-11-01T15:12:06.568Z,2.21
2022-11-01T15:13:38.129Z,2.44
2022-11-01T15:15:09.530Z,2.09
2022-11-01T15:16:41.444Z,2.00
2022-11-01T15:18:12.836Z,1.97
2022-11-01T15:19:44.300Z,1.92
2022-11-01T15:21:15.833Z,2.27
2022-11-01T15:22:47.389Z,2.03
2022-11-01T15:24:18.765Z,1.85
2022-11-01T15:25:50.306Z,1.87
2022-11-01T15:27:23.251Z,2.00
2022-11-01T15:28:55.147Z,2.14
2022-11-01T15:30:26.571Z,2.07
2022-11-01T15:31:57.947Z,2.07
2022-11-01T15:33:29.296Z,2.14
2022-11-01T15:35:06.133Z,2.32
2022-11-01T15:36:37.681Z,2.18
2022-11-01T15:38:09.150Z,2.28
2022-11-01T15:39:40.496Z,2.00
2022-11-01T15:41:11.928Z,2.19
2022-11-01T15:42:43.288Z,1.84
2022-11-01T15:44:14.745Z,2.34
2022-11-01T15:45:46.223Z,2.07
2022-11-01T15:47:17.635Z,2.09
2022-11-01T15:48:49.046Z,2.11
2022-11-01T15:50:20.570Z,2.13
2022-11-01T15:51:52.252Z,2.02
2022-11-01T15:53:23.764Z,2.40
2022-11-01T15:55:00.236Z,1.97
2022-11-01T15:56:31.649Z,2.05
2022-11-01T15:58:02.932Z,2.00
2022-11-01T15:59:34.523Z,2.24
2022-11-01T16:01:06.189Z,2.14
2022-11-01T16:02:37.786Z,2.18
2022-11-01T16:04:09.134Z,2.04
2022-11-01T16:05:40.603Z,1.92
2022-11-01T16:07:12.011Z,1.75
2022-11-01T16:08:44.543Z,1.83
2022-11-01T16:10:16.390Z,2.14
2022-11-01T16:11:47.923Z,2.20
2022-11-01T16:13:19.265Z,2.20
2022-11-01T16:14:50.847Z,1.71
2022-11-01T16:16:22.412Z,1.96
2022-11-01T16:17:57.341Z,1.81
2022-11-01T16:19:31.490Z,1.73
2022-11-01T16:21:02.957Z,1.61
2022-11-01T16:22:34.373Z,1.89
2022-11-01T16:24:09.601Z,1.99
2022-11-01T16:25:41.312Z,1.69
2022-11-01T16:27:12.837Z,1.99
2022-11-01T16:28:44.343Z,2.06
2022-11-01T16:30:16.262Z,1.88
2022-11-01T16:31:48.075Z,1.87
2022-11-01T16:33:20.892Z,1.91
2022-11-01T16:34:53.432Z,2.07
2022-11-01T16:36:25.787Z,1.79
2022-11-01T16:37:57.309Z,1.94
2022-11-01T16:39:29.409Z,1.93
2022-11-01T16:41:01.440Z,1.90
2022-11-01T16:42:33.316Z,1.83
2022-11-01T16:44:04.727Z,1.69
2022-11-01T16:45:36.236Z,1.78
2022-11-01T16:47:07.697Z,1.77
2022-11-01T16:48:39.126Z,1.87
2022-11-01T16:50:11.333Z,2.10
2022-11-01T16:51:42.871Z,1.78
2022-11-01T16:53:14.537Z,1.97
2022-11-01T16:54:46.005Z,1.75
2022-11-01T16:56:35.661Z,1.75
2022-11-01T16:58:08.161Z,1.76
2022-11-01T16:59:41.408Z,1.73
2022-11-01T17:01:12.863Z,1.85
2022-11-01T17:02:44.521Z,1.76
2022-11-01T17:04:15.874Z,1.75
2022-11-01T17:05:47.184Z,1.95
2022-11-01T17:07:18.495Z,1.78
2022-11-01T17:08:49.892Z,1.78
2022-11-01T17:10:21.471Z,1.73
2022-11-01T17:11:53.002Z,1.78
2022-11-01T17:13:24.567Z,1.73
2022-11-01T17:14:56.186Z,1.95
2022-11-01T17:16:27.573Z,2.15
2022-11-01T17:17:58.966Z,1.93
2022-11-01T17:19:30.459Z,1.92
2022-11-01T17:21:01.824Z,2.08
2022-11-01T17:22:33.123Z,2.14
2022-11-01T17:24:04.816Z,2.20
2022-11-01T17:25:36.205Z,1.87
2022-11-01T17:27:07.581Z,2.24
2022-11-01T17:28:38.883Z,2.03
2022-11-01T17:30:10.147Z,1.91
2022-11-01T17:31:42.062Z,2.09
2022-11-01T17:33:18.565Z,2.10
2022-11-01T17:34:50.451Z,2.12
2022-11-01T17:36:42.379Z,2.06
2022-11-01T17:38:13.717Z,2.12
2022-11-01T17:39:45.934Z,2.44
2022-11-01T17:41:17.585Z,1.96
2022-11-01T17:42:48.944Z,2.08
2022-11-01T17:44:20.250Z,2.23
2022-11-01T17:45:52.276Z,2.08
2022-11-01T17:47:23.613Z,2.30
2022-11-01T17:48:55.104Z,2.16
2022-11-01T17:50:26.527Z,2.39
2022-11-01T17:51:58.214Z,2.28
2022-11-01T17:53:29.726Z,2.20
2022-11-01T17:55:01.589Z,2.17
2022-11-01T17:56:33.345Z,2.13
2022-11-01T17:58:05.040Z,2.28
2022-11-01T17:59:37.006Z,2.24
2022-11-01T18:01:09.872Z,2.12
2022-11-01T18:02:41.845Z,2.10
2022-11-01T18:04:15.522Z,2.33
2022-11-01T18:05:50.549Z,2.22
2022-11-01T18:07:23.335Z,2.15
2022-11-01T18:08:55.221Z,2.08
2022-11-01T18:10:27.293Z,2.12
2022-11-01T18:11:58.997Z,1.97
2022-11-01T18:13:30.481Z,2.29
2022-11-01T18:15:02.616Z,2.09
2022-11-01T18:16:34.132Z,2.07
2022-11-01T18:18:05.815Z,2.08
2022-11-01T18:19:37.463Z,2.34
2022-11-01T18:21:08.708Z,1.89
2022-11-01T18:23:00.950Z,2.07
2022-11-01T18:24:32.245Z,2.19
2022-11-01T18:26:03.704Z,2.27
2022-11-01T18:27:35.064Z,2.20
2022-11-01T18:29:06.348Z,3.00
2022-11-01T18:30:37.666Z,2.30
2022-11-01T18:32:09.234Z,2.24
2022-11-01T18:33:40.746Z,2.21
2022-11-01T18:35:12.316Z,2.37
2022-11-01T18:36:43.761Z,1.87
2022-11-01T18:38:15.460Z,2.00
2022-11-01T18:39:46.805Z,2.16
2022-11-01T18:41:18.509Z,2.48
2022-11-01T18:42:49.887Z,2.48
2022-11-01T18:44:21.243Z,2.44
2022-11-01T18:46:22.878Z,2.17
2022-11-01T18:47:56.058Z,2.19
2022-11-01T18:49:27.929Z,2.38
2022-11-01T18:51:04.670Z,1.89
2022-11-01T18:52:36.903Z,2.52
2022-11-01T18:54:09.179Z,2.17
2022-11-01T18:55:40.590Z,1.96
2022-11-01T18:57:12.854Z,2.26
2022-11-01T18:58:45.772Z,2.41
2022-11-01T19:00:18.014Z,2.29
2022-11-01T19:01:49.698Z,2.26
2022-11-01T19:03:24.230Z,2.52
2022-11-01T19:04:55.766Z,2.16
2022-11-01T19:06:27.591Z,2.02
2022-11-01T19:08:11.001Z,2.16
2022-11-01T19:09:51.597Z,2.29
2022-11-01T19:11:23.507Z,2.32
2022-11-01T19:12:55.644Z,2.73
2022-11-01T19:14:27.487Z,2.44
2022-11-01T19:16:01.564Z,2.56
2022-11-01T19:17:34.792Z,2.36
2022-11-01T19:19:08.164Z,2.44
2022-11-01T19:20:40.145Z,2.27
2022-11-01T19:22:11.620Z,2.64
2022-11-01T19:23:43.401Z,2.26
2022-11-01T19:25:14.834Z,2.03
2022-11-01T19:26:46.273Z,2.79
2022-11-01T19:28:18.127Z,3.03
2022-11-01T19:29:52.845Z,2.63
2022-11-01T19:31:27.026Z,2.47
2022-11-01T19:32:58.399Z,2.76
2022-11-01T19:34:29.768Z,2.54
2022-11-01T19:36:01.434Z,2.47
2022-11-01T19:37:34.913Z,2.50
2022-11-01T19:39:08.849Z,2.52
2022-11-01T19:40:41.313Z,2.15
2022-11-01T19:42:12.728Z,2.07
2022-11-01T19:43:44.168Z,2.73
2022-11-01T19:45:16.460Z,2.47
2022-11-01T19:46:48.168Z,2.91
2022-11-01T19:48:29.474Z,2.58
2022-11-01T19:50:01.112Z,2.22
2022-11-01T19:51:32.695Z,2.32
2022-11-01T19:53:04.316Z,2.22
2022-11-01T19:54:36.064Z,2.71
2022-11-01T19:56:07.538Z,2.07
2022-11-01T19:57:42.358Z,2.48
2022-11-01T19:59:17.176Z,2.15
2022-11-01T20:00:48.937Z,1.93
2022-11-01T20:02:25.613Z,2.19
2022-11-01T20:04:07.702Z,2.29
2022-11-01T20:05:38.965Z,2.66
2022-11-01T20:07:10.274Z,2.54
2022-11-01T20:08:41.895Z,2.38
2022-11-01T20:10:18.184Z,2.31
2022-11-01T20:11:49.632Z,2.61
2022-11-01T20:13:21.152Z,2.29
2022-11-01T20:14:52.552Z,2.22
2022-11-01T20:16:24.242Z,2.38
2022-11-01T20:17:56.190Z,2.44
2022-11-01T20:19:27.704Z,2.45
2022-11-01T20:20:59.122Z,2.57
2022-11-01T20:22:31.341Z,2.28
2022-11-01T20:24:02.646Z,2.13
2022-11-01T20:25:34.194Z,2.36
2022-11-01T20:27:06.052Z,2.32
2022-11-01T20:28:37.565Z,2.30
2022-11-01T20:30:08.974Z,2.40
2022-11-01T20:31:41.467Z,2.33